sensor_id;sensor_type;location;lat;lon;timestamp;temperature;humidity
5059;DHT22;2548;52.050;11.036;2023-11-19T00:01:55;5.40;99.90
5059;DHT22;2548;52.050;11.036;2023-11-19T00:04:25;5.40;99.90
5059;DHT22;2548;52.050;11.036;2023-11-19T00:06:53;5.40;99.90
5059;DHT22;2548;52.050;11.036;2023-11-19T00:09:21;5.40;99.90
5059;DHT22;2548;52.050;11.036;2023-11-19T00:11:59;5.40;99.90
5059;DHT22;2548;52.050;11.036;2023-11-19T00:14:30;5.40;99.90
5059;DHT22;2548;52.050;11.036;2023-11-19T00:16:57;5.40;99.90
5059;DHT22;2548;52.050;11.036;2023-11-19T00:19:25;5.40;99.90
5059;DHT22;2548;52.050;11.036;2023-11-19T00:21:56;5.40;99.90
5059;DHT22;2548;52.050;11.036;2023-11-19T00:24:29;5.40;99.90
5059;DHT22;2548;52.050;11.036;2023-11-19T00:26:59;5.50;99.90
5059;DHT22;2548;52.050;11.036;2023-11-19T00:29:30;5.50;99.90
5059;DHT22;2548;52.050;11.036;2023-11-19T00:32:04;5.50;99.90
5059;DHT22;2548;52.050;11.036;2023-11-19T00:34:33;5.50;99.90
5059;DHT22;2548;52.050;11.036;2023-11-19T00:37:01;5.50;99.90
5059;DHT22;2548;52.050;11.036;2023-11-19T00:39:31;5.50;99.90
5059;DHT22;2548;52.050;11.036;2023-11-19T00:41:59;5.50;99.90
5059;DHT22;2548;52.050;11.036;2023-11-19T00:44:28;5.50;99.90
5059;DHT22;2548;52.050;11.036;2023-11-19T00:46:55;5.50;99.90
5059;DHT22;2548;52.050;11.036;2023-11-19T00:49:26;5.50;99.90
5059;DHT22;2548;52.050;11.036;2023-11-19T00:51:57;5.50;99.90
5059;DHT22;2548;52.050;11.036;2023-11-19T00:54:28;5.60;99.90
5059;DHT22;2548;52.050;11.036;2023-11-19T00:56:57;5.60;99.90
5059;DHT22;2548;52.050;11.036;2023-11-19T00:59:27;5.60;99.90
5059;DHT22;2548;52.050;11.036;2023-11-19T01:01:55;5.60;99.90
5059;DHT22;2548;52.050;11.036;2023-11-19T01:04:27;5.70;99.90
5059;DHT22;2548;52.050;11.036;2023-11-19T01:06:54;5.70;99.90
5059;DHT22;2548;52.050;11.036;2023-11-19T01:09:25;5.70;99.90
5059;DHT22;2548;52.050;11.036;2023-11-19T01:11:58;5.70;99.90
5059;DHT22;2548;52.050;11.036;2023-11-19T01:14:26;5.70;99.90
5059;DHT22;2548;52.050;11.036;2023-11-19T01:16:57;5.80;99.90
5059;DHT22;2548;52.050;11.036;2023-11-19T01:19:25;5.70;99.90
5059;DHT22;2548;52.050;11.036;2023-11-19T01:21:57;5.80;99.90
5059;DHT22;2548;52.050;11.036;2023-11-19T01:24:25;5.80;99.90
5059;DHT22;2548;52.050;11.036;2023-11-19T01:26:54;5.80;99.90
5059;DHT22;2548;52.050;11.036;2023-11-19T01:29:27;5.80;99.90
5059;DHT22;2548;52.050;11.036;2023-11-19T01:31:58;5.80;99.90
5059;DHT22;2548;52.050;11.036;2023-11-19T01:34:25;5.80;99.90
5059;DHT22;2548;52.050;11.036;2023-11-19T01:36:53;5.90;99.90
5059;DHT22;2548;52.050;11.036;2023-11-19T01:39:20;5.90;99.90
5059;DHT22;2548;52.050;11.036;2023-11-19T01:41:48;5.90;99.90
5059;DHT22;2548;52.050;11.036;2023-11-19T01:44:15;5.90;99.90
5059;DHT22;2548;52.050;11.036;2023-11-19T01:46:46;5.90;99.90
5059;DHT22;2548;52.050;11.036;2023-11-19T01:49:15;6.00;99.90
5059;DHT22;2548;52.050;11.036;2023-11-19T01:51:44;6.00;99.90
5059;DHT22;2548;52.050;11.036;2023-11-19T01:54:12;6.00;99.90
5059;DHT22;2548;52.050;11.036;2023-11-19T01:56:41;6.00;99.90
5059;DHT22;2548;52.050;11.036;2023-11-19T01:59:10;6.00;99.90
5059;DHT22;2548;52.050;11.036;2023-11-19T02:01:40;6.10;99.90
5059;DHT22;2548;52.050;11.036;2023-11-19T02:04:09;6.10;99.90
5059;DHT22;2548;52.050;11.036;2023-11-19T02:06:40;6.10;99.90
5059;DHT22;2548;52.050;11.036;2023-11-19T02:09:09;6.10;99.90
5059;DHT22;2548;52.050;11.036;2023-11-19T02:11:39;6.10;99.90
5059;DHT22;2548;52.050;11.036;2023-11-19T02:14:06;6.10;99.90
5059;DHT22;2548;52.050;11.036;2023-11-19T02:16:37;6.10;99.90
5059;DHT22;2548;52.050;11.036;2023-11-19T02:19:09;6.10;99.90
5059;DHT22;2548;52.050;11.036;2023-11-19T02:21:40;6.20;99.90
5059;DHT22;2548;52.050;11.036;2023-11-19T02:24:14;6.20;99.90
5059;DHT22;2548;52.050;11.036;2023-11-19T02:26:47;6.20;99.90
5059;DHT22;2548;52.050;11.036;2023-11-19T02:29:23;6.20;99.90
5059;DHT22;2548;52.050;11.036;2023-11-19T02:31:50;6.20;99.90
5059;DHT22;2548;52.050;11.036;2023-11-19T02:34:18;6.20;99.90
5059;DHT22;2548;52.050;11.036;2023-11-19T02:36:52;6.20;99.90
5059;DHT22;2548;52.050;11.036;2023-11-19T02:39:29;6.20;99.90
5059;DHT22;2548;52.050;11.036;2023-11-19T02:41:57;6.20;99.90
5059;DHT22;2548;52.050;11.036;2023-11-19T02:44:26;6.30;99.90
5059;DHT22;2548;52.050;11.036;2023-11-19T02:46:57;6.30;99.90
5059;DHT22;2548;52.050;11.036;2023-11-19T02:49:31;6.30;99.90
5059;DHT22;2548;52.050;11.036;2023-11-19T02:51:59;6.30;99.90
5059;DHT22;2548;52.050;11.036;2023-11-19T02:54:26;6.30;99.90
5059;DHT22;2548;52.050;11.036;2023-11-19T02:56:54;6.30;99.90
5059;DHT22;2548;52.050;11.036;2023-11-19T02:59:27;6.30;99.90
5059;DHT22;2548;52.050;11.036;2023-11-19T03:02:09;6.30;99.90
5059;DHT22;2548;52.050;11.036;2023-11-19T03:04:44;6.30;99.90
5059;DHT22;2548;52.050;11.036;2023-11-19T03:07:14;6.40;99.90
5059;DHT22;2548;52.050;11.036;2023-11-19T03:09:44;6.40;99.90
5059;DHT22;2548;52.050;11.036;2023-11-19T03:12:11;6.40;99.90
5059;DHT22;2548;52.050;11.036;2023-11-19T03:14:56;6.30;99.90
5059;DHT22;2548;52.050;11.036;2023-11-19T03:17:27;6.30;99.90
5059;DHT22;2548;52.050;11.036;2023-11-19T03:19:57;6.30;99.90
5059;DHT22;2548;52.050;11.036;2023-11-19T03:22:28;6.30;99.90
5059;DHT22;2548;52.050;11.036;2023-11-19T03:24:56;6.30;99.90
5059;DHT22;2548;52.050;11.036;2023-11-19T03:27:23;6.30;99.90
5059;DHT22;2548;52.050;11.036;2023-11-19T03:29:50;6.30;99.90
5059;DHT22;2548;52.050;11.036;2023-11-19T03:32:22;6.30;99.90
5059;DHT22;2548;52.050;11.036;2023-11-19T03:34:50;6.30;99.90
5059;DHT22;2548;52.050;11.036;2023-11-19T03:37:20;6.30;99.90
5059;DHT22;2548;52.050;11.036;2023-11-19T03:39:57;6.30;99.90
5059;DHT22;2548;52.050;11.036;2023-11-19T03:42:31;6.30;99.90
5059;DHT22;2548;52.050;11.036;2023-11-19T03:44:58;6.30;99.90
5059;DHT22;2548;52.050;11.036;2023-11-19T03:47:27;6.40;99.90
5059;DHT22;2548;52.050;11.036;2023-11-19T03:49:55;6.40;99.90
5059;DHT22;2548;52.050;11.036;2023-11-19T03:52:26;6.40;99.90
5059;DHT22;2548;52.050;11.036;2023-11-19T03:55:00;6.40;99.90
5059;DHT22;2548;52.050;11.036;2023-11-19T03:57:28;6.50;99.90
5059;DHT22;2548;52.050;11.036;2023-11-19T03:59:55;6.50;99.90
5059;DHT22;2548;52.050;11.036;2023-11-19T04:02:28;6.50;99.90
5059;DHT22;2548;52.050;11.036;2023-11-19T04:04:55;6.50;99.90
5059;DHT22;2548;52.050;11.036;2023-11-19T04:07:26;6.50;99.90
5059;DHT22;2548;52.050;11.036;2023-11-19T04:09:56;6.50;99.90
5059;DHT22;2548;52.050;11.036;2023-11-19T04:12:31;6.60;99.90
5059;DHT22;2548;52.050;11.036;2023-11-19T04:15:05;6.60;99.90
5059;DHT22;2548;52.050;11.036;2023-11-19T04:17:41;6.60;99.90
5059;DHT22;2548;52.050;11.036;2023-11-19T04:20:10;6.60;99.90
5059;DHT22;2548;52.050;11.036;2023-11-19T04:22:51;6.70;99.90
5059;DHT22;2548;52.050;11.036;2023-11-19T04:25:19;6.70;99.90
5059;DHT22;2548;52.050;11.036;2023-11-19T04:27:53;6.70;99.90
5059;DHT22;2548;52.050;11.036;2023-11-19T04:30:20;6.70;99.90
5059;DHT22;2548;52.050;11.036;2023-11-19T04:32:53;6.70;99.90
5059;DHT22;2548;52.050;11.036;2023-11-19T04:35:26;6.70;99.90
5059;DHT22;2548;52.050;11.036;2023-11-19T04:37:54;6.80;99.90
5059;DHT22;2548;52.050;11.036;2023-11-19T04:40:23;6.80;99.90
5059;DHT22;2548;52.050;11.036;2023-11-19T04:42:53;6.70;99.90
5059;DHT22;2548;52.050;11.036;2023-11-19T04:45:26;6.80;99.90
5059;DHT22;2548;52.050;11.036;2023-11-19T04:47:58;6.90;99.90
5059;DHT22;2548;52.050;11.036;2023-11-19T04:50:25;6.90;99.90
5059;DHT22;2548;52.050;11.036;2023-11-19T04:52:53;6.80;99.90
5059;DHT22;2548;52.050;11.036;2023-11-19T04:55:23;6.80;99.90
5059;DHT22;2548;52.050;11.036;2023-11-19T04:57:54;6.80;99.90
5059;DHT22;2548;52.050;11.036;2023-11-19T05:00:21;6.90;99.90
5059;DHT22;2548;52.050;11.036;2023-11-19T05:02:48;7.00;99.90
5059;DHT22;2548;52.050;11.036;2023-11-19T05:05:17;7.10;99.90
5059;DHT22;2548;52.050;11.036;2023-11-19T05:07:45;7.20;99.90
5059;DHT22;2548;52.050;11.036;2023-11-19T05:10:12;7.50;99.90
5059;DHT22;2548;52.050;11.036;2023-11-19T05:12:40;7.80;99.90
5059;DHT22;2548;52.050;11.036;2023-11-19T05:15:08;8.00;99.90
5059;DHT22;2548;52.050;11.036;2023-11-19T05:17:40;8.20;99.90
5059;DHT22;2548;52.050;11.036;2023-11-19T05:20:09;8.40;99.90
5059;DHT22;2548;52.050;11.036;2023-11-19T05:22:41;8.50;99.90
5059;DHT22;2548;52.050;11.036;2023-11-19T05:25:09;8.60;99.90
5059;DHT22;2548;52.050;11.036;2023-11-19T05:27:37;8.70;99.90
5059;DHT22;2548;52.050;11.036;2023-11-19T05:30:18;8.80;99.90
5059;DHT22;2548;52.050;11.036;2023-11-19T05:32:45;8.90;99.90
5059;DHT22;2548;52.050;11.036;2023-11-19T05:35:19;8.90;99.90
5059;DHT22;2548;52.050;11.036;2023-11-19T05:37:51;9.00;99.90
5059;DHT22;2548;52.050;11.036;2023-11-19T05:40:18;9.10;99.90
5059;DHT22;2548;52.050;11.036;2023-11-19T05:42:52;9.20;99.90
5059;DHT22;2548;52.050;11.036;2023-11-19T05:45:20;9.20;99.90
5059;DHT22;2548;52.050;11.036;2023-11-19T05:47:47;9.20;99.90
5059;DHT22;2548;52.050;11.036;2023-11-19T05:50:15;9.20;99.90
5059;DHT22;2548;52.050;11.036;2023-11-19T05:52:52;9.30;99.90
5059;DHT22;2548;52.050;11.036;2023-11-19T05:55:20;9.40;99.90
5059;DHT22;2548;52.050;11.036;2023-11-19T05:57:58;9.40;99.90
5059;DHT22;2548;52.050;11.036;2023-11-19T06:00:26;9.40;99.90
5059;DHT22;2548;52.050;11.036;2023-11-19T06:02:56;9.40;99.90
5059;DHT22;2548;52.050;11.036;2023-11-19T06:05:24;9.40;99.90
5059;DHT22;2548;52.050;11.036;2023-11-19T06:07:52;9.40;99.90
5059;DHT22;2548;52.050;11.036;2023-11-19T06:10:22;9.50;99.90
5059;DHT22;2548;52.050;11.036;2023-11-19T06:12:55;9.50;99.90
5059;DHT22;2548;52.050;11.036;2023-11-19T06:15:23;9.50;99.90
5059;DHT22;2548;52.050;11.036;2023-11-19T06:17:56;9.50;99.90
5059;DHT22;2548;52.050;11.036;2023-11-19T06:20:25;9.50;99.90
5059;DHT22;2548;52.050;11.036;2023-11-19T06:22:58;9.50;99.90
5059;DHT22;2548;52.050;11.036;2023-11-19T06:25:26;9.50;99.90
5059;DHT22;2548;52.050;11.036;2023-11-19T06:27:56;9.50;99.90
5059;DHT22;2548;52.050;11.036;2023-11-19T06:30:27;9.50;99.90
5059;DHT22;2548;52.050;11.036;2023-11-19T06:32:58;9.40;99.90
5059;DHT22;2548;52.050;11.036;2023-11-19T06:35:25;9.40;99.90
5059;DHT22;2548;52.050;11.036;2023-11-19T06:37:59;9.40;99.90
5059;DHT22;2548;52.050;11.036;2023-11-19T06:40:27;9.40;99.90
5059;DHT22;2548;52.050;11.036;2023-11-19T06:42:55;9.50;99.90
5059;DHT22;2548;52.050;11.036;2023-11-19T06:45:23;9.50;99.90
5059;DHT22;2548;52.050;11.036;2023-11-19T06:47:56;9.50;99.90
5059;DHT22;2548;52.050;11.036;2023-11-19T06:50:24;9.50;99.90
5059;DHT22;2548;52.050;11.036;2023-11-19T06:52:52;9.50;99.90
5059;DHT22;2548;52.050;11.036;2023-11-19T06:55:24;9.40;99.90
5059;DHT22;2548;52.050;11.036;2023-11-19T06:57:51;9.40;99.90
5059;DHT22;2548;52.050;11.036;2023-11-19T07:00:19;9.40;99.90
5059;DHT22;2548;52.050;11.036;2023-11-19T07:02:59;9.50;99.90
5059;DHT22;2548;52.050;11.036;2023-11-19T07:05:27;9.50;99.90
5059;DHT22;2548;52.050;11.036;2023-11-19T07:07:56;9.50;99.90
5059;DHT22;2548;52.050;11.036;2023-11-19T07:10:27;9.50;99.90
5059;DHT22;2548;52.050;11.036;2023-11-19T07:12:56;9.60;99.90
5059;DHT22;2548;52.050;11.036;2023-11-19T07:15:23;9.60;99.90
5059;DHT22;2548;52.050;11.036;2023-11-19T07:17:51;9.60;99.90
5059;DHT22;2548;52.050;11.036;2023-11-19T07:20:26;9.60;99.90
5059;DHT22;2548;52.050;11.036;2023-11-19T07:22:57;9.70;99.90
5059;DHT22;2548;52.050;11.036;2023-11-19T07:25:25;9.80;99.90
5059;DHT22;2548;52.050;11.036;2023-11-19T07:27:53;9.80;99.90
5059;DHT22;2548;52.050;11.036;2023-11-19T07:30:23;9.90;99.90
5059;DHT22;2548;52.050;11.036;2023-11-19T07:32:58;9.90;99.90
5059;DHT22;2548;52.050;11.036;2023-11-19T07:35:25;10.00;99.90
5059;DHT22;2548;52.050;11.036;2023-11-19T07:37:56;10.10;99.90
5059;DHT22;2548;52.050;11.036;2023-11-19T07:40:27;10.10;99.90
5059;DHT22;2548;52.050;11.036;2023-11-19T07:42:55;10.20;99.90
5059;DHT22;2548;52.050;11.036;2023-11-19T07:45:25;10.20;99.90
5059;DHT22;2548;52.050;11.036;2023-11-19T07:47:53;10.30;99.90
5059;DHT22;2548;52.050;11.036;2023-11-19T07:50:24;10.30;99.90
5059;DHT22;2548;52.050;11.036;2023-11-19T07:52:59;10.30;99.90
5059;DHT22;2548;52.050;11.036;2023-11-19T07:55:27;10.30;99.90
5059;DHT22;2548;52.050;11.036;2023-11-19T07:57:56;10.40;99.90
5059;DHT22;2548;52.050;11.036;2023-11-19T08:00:26;10.50;99.90
5059;DHT22;2548;52.050;11.036;2023-11-19T08:02:57;10.60;99.90
5059;DHT22;2548;52.050;11.036;2023-11-19T08:05:24;10.60;99.90
5059;DHT22;2548;52.050;11.036;2023-11-19T08:07:52;10.70;99.90
5059;DHT22;2548;52.050;11.036;2023-11-19T08:10:27;10.80;99.90
5059;DHT22;2548;52.050;11.036;2023-11-19T08:12:55;10.70;99.90
5059;DHT22;2548;52.050;11.036;2023-11-19T08:15:22;10.70;99.90
5059;DHT22;2548;52.050;11.036;2023-11-19T08:17:49;10.70;99.90
5059;DHT22;2548;52.050;11.036;2023-11-19T08:20:17;10.70;99.90
5059;DHT22;2548;52.050;11.036;2023-11-19T08:22:44;10.80;99.90
5059;DHT22;2548;52.050;11.036;2023-11-19T08:25:12;10.70;99.90
5059;DHT22;2548;52.050;11.036;2023-11-19T08:27:41;10.70;99.90
5059;DHT22;2548;52.050;11.036;2023-11-19T08:30:15;10.70;99.90
5059;DHT22;2548;52.050;11.036;2023-11-19T08:32:42;10.70;99.90
5059;DHT22;2548;52.050;11.036;2023-11-19T08:35:10;10.70;99.90
5059;DHT22;2548;52.050;11.036;2023-11-19T08:37:37;10.80;99.90
5059;DHT22;2548;52.050;11.036;2023-11-19T08:40:06;10.90;99.90
5059;DHT22;2548;52.050;11.036;2023-11-19T08:42:34;11.00;99.90
5059;DHT22;2548;52.050;11.036;2023-11-19T08:45:05;11.00;99.90
5059;DHT22;2548;52.050;11.036;2023-11-19T08:47:32;11.10;99.90
5059;DHT22;2548;52.050;11.036;2023-11-19T08:50:00;11.10;99.90
5059;DHT22;2548;52.050;11.036;2023-11-19T08:52:28;11.10;99.90
5059;DHT22;2548;52.050;11.036;2023-11-19T08:54:55;11.00;99.90
5059;DHT22;2548;52.050;11.036;2023-11-19T08:57:23;11.10;99.90
5059;DHT22;2548;52.050;11.036;2023-11-19T08:59:50;11.10;99.90
5059;DHT22;2548;52.050;11.036;2023-11-19T09:02:23;11.10;99.90
5059;DHT22;2548;52.050;11.036;2023-11-19T09:04:50;11.10;99.90
5059;DHT22;2548;52.050;11.036;2023-11-19T09:07:20;11.10;99.90
5059;DHT22;2548;52.050;11.036;2023-11-19T09:09:48;11.10;99.90
5059;DHT22;2548;52.050;11.036;2023-11-19T09:12:21;11.00;99.90
5059;DHT22;2548;52.050;11.036;2023-11-19T09:14:51;11.10;99.90
5059;DHT22;2548;52.050;11.036;2023-11-19T09:17:22;11.20;99.90
5059;DHT22;2548;52.050;11.036;2023-11-19T09:19:50;11.30;99.90
5059;DHT22;2548;52.050;11.036;2023-11-19T09:22:17;11.30;99.90
5059;DHT22;2548;52.050;11.036;2023-11-19T09:24:45;11.30;99.90
5059;DHT22;2548;52.050;11.036;2023-11-19T09:27:14;11.50;99.90
5059;DHT22;2548;52.050;11.036;2023-11-19T09:29:45;11.60;99.90
5059;DHT22;2548;52.050;11.036;2023-11-19T09:32:15;11.60;99.90
5059;DHT22;2548;52.050;11.036;2023-11-19T09:34:46;11.60;99.90
5059;DHT22;2548;52.050;11.036;2023-11-19T09:37:19;11.70;99.90
5059;DHT22;2548;52.050;11.036;2023-11-19T09:39:47;11.70;99.90
5059;DHT22;2548;52.050;11.036;2023-11-19T09:42:15;11.80;99.90
5059;DHT22;2548;52.050;11.036;2023-11-19T09:44:44;11.80;99.90
5059;DHT22;2548;52.050;11.036;2023-11-19T09:47:14;11.80;99.90
5059;DHT22;2548;52.050;11.036;2023-11-19T09:49:45;11.80;99.90
5059;DHT22;2548;52.050;11.036;2023-11-19T09:52:14;11.80;99.90
5059;DHT22;2548;52.050;11.036;2023-11-19T09:54:47;11.90;99.90
5059;DHT22;2548;52.050;11.036;2023-11-19T09:57:16;12.00;99.90
5059;DHT22;2548;52.050;11.036;2023-11-19T09:59:45;12.00;99.90
5059;DHT22;2548;52.050;11.036;2023-11-19T10:02:14;11.90;99.90
5059;DHT22;2548;52.050;11.036;2023-11-19T10:04:46;11.90;99.90
5059;DHT22;2548;52.050;11.036;2023-11-19T10:07:18;11.90;99.90
5059;DHT22;2548;52.050;11.036;2023-11-19T10:09:48;12.00;99.90
5059;DHT22;2548;52.050;11.036;2023-11-19T10:12:21;12.10;99.90
5059;DHT22;2548;52.050;11.036;2023-11-19T10:14:48;12.20;99.90
5059;DHT22;2548;52.050;11.036;2023-11-19T10:17:20;12.30;99.90
5059;DHT22;2548;52.050;11.036;2023-11-19T10:19:57;12.40;99.90
5059;DHT22;2548;52.050;11.036;2023-11-19T10:22:25;12.40;99.90
5059;DHT22;2548;52.050;11.036;2023-11-19T10:24:56;12.50;99.90
5059;DHT22;2548;52.050;11.036;2023-11-19T10:27:24;12.60;99.90
5059;DHT22;2548;52.050;11.036;2023-11-19T10:29:52;12.60;99.90
5059;DHT22;2548;52.050;11.036;2023-11-19T10:32:23;12.70;99.90
5059;DHT22;2548;52.050;11.036;2023-11-19T10:35:05;12.70;99.90
5059;DHT22;2548;52.050;11.036;2023-11-19T10:37:40;12.60;99.90
5059;DHT22;2548;52.050;11.036;2023-11-19T10:40:09;12.60;99.90
5059;DHT22;2548;52.050;11.036;2023-11-19T10:42:37;12.60;99.90
5059;DHT22;2548;52.050;11.036;2023-11-19T10:45:05;12.60;99.90
5059;DHT22;2548;52.050;11.036;2023-11-19T10:47:48;12.70;99.90
5059;DHT22;2548;52.050;11.036;2023-11-19T10:50:17;12.70;99.90
5059;DHT22;2548;52.050;11.036;2023-11-19T10:52:46;12.70;99.90
5059;DHT22;2548;52.050;11.036;2023-11-19T10:55:15;12.80;99.90
5059;DHT22;2548;52.050;11.036;2023-11-19T10:57:49;12.80;99.90
5059;DHT22;2548;52.050;11.036;2023-11-19T11:00:19;12.80;99.90
5059;DHT22;2548;52.050;11.036;2023-11-19T11:02:51;12.80;99.90
5059;DHT22;2548;52.050;11.036;2023-11-19T11:05:22;12.90;99.90
5059;DHT22;2548;52.050;11.036;2023-11-19T11:07:54;12.90;99.90
5059;DHT22;2548;52.050;11.036;2023-11-19T11:10:25;12.90;99.90
5059;DHT22;2548;52.050;11.036;2023-11-19T11:12:57;12.90;99.90
5059;DHT22;2548;52.050;11.036;2023-11-19T11:15:27;12.90;99.90
5059;DHT22;2548;52.050;11.036;2023-11-19T11:18:02;12.90;99.90
5059;DHT22;2548;52.050;11.036;2023-11-19T11:20:32;12.80;99.90
5059;DHT22;2548;52.050;11.036;2023-11-19T11:23:30;12.80;99.90
5059;DHT22;2548;52.050;11.036;2023-11-19T11:26:18;12.80;99.90
5059;DHT22;2548;52.050;11.036;2023-11-19T11:28:58;12.80;99.90
5059;DHT22;2548;52.050;11.036;2023-11-19T11:31:58;12.90;99.90
5059;DHT22;2548;52.050;11.036;2023-11-19T11:34:45;13.00;99.90
5059;DHT22;2548;52.050;11.036;2023-11-19T11:37:27;12.90;99.90
5059;DHT22;2548;52.050;11.036;2023-11-19T11:39:58;12.80;99.90
5059;DHT22;2548;52.050;11.036;2023-11-19T11:42:36;12.80;99.90
5059;DHT22;2548;52.050;11.036;2023-11-19T11:45:06;12.70;99.90
5059;DHT22;2548;52.050;11.036;2023-11-19T11:51:01;12.80;99.90
5059;DHT22;2548;52.050;11.036;2023-11-19T11:53:30;12.80;99.90
5059;DHT22;2548;52.050;11.036;2023-11-19T11:56:05;12.90;99.90
5059;DHT22;2548;52.050;11.036;2023-11-19T11:58:35;12.90;99.90
5059;DHT22;2548;52.050;11.036;2023-11-19T12:01:14;13.00;99.90
5059;DHT22;2548;52.050;11.036;2023-11-19T12:03:46;13.10;99.90
5059;DHT22;2548;52.050;11.036;2023-11-19T12:06:20;13.20;99.90
5059;DHT22;2548;52.050;11.036;2023-11-19T12:08:52;13.20;99.90
5059;DHT22;2548;52.050;11.036;2023-11-19T12:11:20;13.30;99.90
5059;DHT22;2548;52.050;11.036;2023-11-19T12:13:55;13.30;99.90
5059;DHT22;2548;52.050;11.036;2023-11-19T12:16:27;13.30;99.90
5059;DHT22;2548;52.050;11.036;2023-11-19T12:18:56;13.30;99.90
5059;DHT22;2548;52.050;11.036;2023-11-19T12:21:30;13.30;99.90
5059;DHT22;2548;52.050;11.036;2023-11-19T12:24:06;13.30;99.90
5059;DHT22;2548;52.050;11.036;2023-11-19T12:26:38;13.30;99.90
5059;DHT22;2548;52.050;11.036;2023-11-19T12:29:07;13.30;99.90
5059;DHT22;2548;52.050;11.036;2023-11-19T12:31:34;13.30;99.90
5059;DHT22;2548;52.050;11.036;2023-11-19T12:34:08;13.30;99.90
5059;DHT22;2548;52.050;11.036;2023-11-19T12:36:41;13.30;99.90
5059;DHT22;2548;52.050;11.036;2023-11-19T12:39:11;13.30;99.90
5059;DHT22;2548;52.050;11.036;2023-11-19T12:41:52;13.20;99.90
5059;DHT22;2548;52.050;11.036;2023-11-19T12:44:21;13.20;99.90
5059;DHT22;2548;52.050;11.036;2023-11-19T12:47:08;13.20;99.90
5059;DHT22;2548;52.050;11.036;2023-11-19T12:49:37;13.10;99.90
5059;DHT22;2548;52.050;11.036;2023-11-19T12:52:13;13.10;99.90
5059;DHT22;2548;52.050;11.036;2023-11-19T12:54:45;13.00;99.90
5059;DHT22;2548;52.050;11.036;2023-11-19T12:57:12;13.00;99.90
5059;DHT22;2548;52.050;11.036;2023-11-19T12:59:54;12.90;99.90
5059;DHT22;2548;52.050;11.036;2023-11-19T13:02:21;12.80;99.90
5059;DHT22;2548;52.050;11.036;2023-11-19T13:04:49;12.80;99.90
5059;DHT22;2548;52.050;11.036;2023-11-19T13:07:23;12.80;99.90
5059;DHT22;2548;52.050;11.036;2023-11-19T13:09:51;12.90;99.90
5059;DHT22;2548;52.050;11.036;2023-11-19T13:12:31;12.90;99.90
5059;DHT22;2548;52.050;11.036;2023-11-19T13:14:58;12.80;99.90
5059;DHT22;2548;52.050;11.036;2023-11-19T13:17:29;12.80;99.90
5059;DHT22;2548;52.050;11.036;2023-11-19T13:19:56;12.80;99.90
5059;DHT22;2548;52.050;11.036;2023-11-19T13:22:26;12.80;99.90
5059;DHT22;2548;52.050;11.036;2023-11-19T13:24:57;12.80;99.90
5059;DHT22;2548;52.050;11.036;2023-11-19T13:27:27;12.80;99.90
5059;DHT22;2548;52.050;11.036;2023-11-19T13:29:54;12.80;99.90
5059;DHT22;2548;52.050;11.036;2023-11-19T13:32:25;12.80;99.90
5059;DHT22;2548;52.050;11.036;2023-11-19T13:34:52;12.80;99.90
5059;DHT22;2548;52.050;11.036;2023-11-19T13:37:20;12.70;99.90
5059;DHT22;2548;52.050;11.036;2023-11-19T13:40:09;12.70;99.90
5059;DHT22;2548;52.050;11.036;2023-11-19T13:42:40;12.60;99.90
5059;DHT22;2548;52.050;11.036;2023-11-19T13:45:11;12.60;99.90
5059;DHT22;2548;52.050;11.036;2023-11-19T13:47:40;12.50;99.90
5059;DHT22;2548;52.050;11.036;2023-11-19T13:50:09;12.40;99.90
5059;DHT22;2548;52.050;11.036;2023-11-19T13:52:37;12.30;99.90
5059;DHT22;2548;52.050;11.036;2023-11-19T13:55:08;12.30;99.90
5059;DHT22;2548;52.050;11.036;2023-11-19T13:57:37;12.20;99.90
5059;DHT22;2548;52.050;11.036;2023-11-19T14:00:15;12.20;99.90
5059;DHT22;2548;52.050;11.036;2023-11-19T14:02:46;12.20;99.90
5059;DHT22;2548;52.050;11.036;2023-11-19T14:05:15;12.10;99.90
5059;DHT22;2548;52.050;11.036;2023-11-19T14:07:46;12.10;99.90
5059;DHT22;2548;52.050;11.036;2023-11-19T14:10:15;12.00;99.90
5059;DHT22;2548;52.050;11.036;2023-11-19T14:12:46;12.00;99.90
5059;DHT22;2548;52.050;11.036;2023-11-19T14:15:15;12.00;99.90
5059;DHT22;2548;52.050;11.036;2023-11-19T14:17:45;12.00;99.90
5059;DHT22;2548;52.050;11.036;2023-11-19T14:20:13;11.90;99.90
5059;DHT22;2548;52.050;11.036;2023-11-19T14:22:47;11.90;99.90
5059;DHT22;2548;52.050;11.036;2023-11-19T14:25:17;12.00;99.90
5059;DHT22;2548;52.050;11.036;2023-11-19T14:27:45;12.00;99.90
5059;DHT22;2548;52.050;11.036;2023-11-19T14:30:13;11.90;99.90
5059;DHT22;2548;52.050;11.036;2023-11-19T14:32:45;12.00;99.90
5059;DHT22;2548;52.050;11.036;2023-11-19T14:35:14;12.00;99.90
5059;DHT22;2548;52.050;11.036;2023-11-19T14:37:45;12.10;99.90
5059;DHT22;2548;52.050;11.036;2023-11-19T14:40:12;12.00;99.90
5059;DHT22;2548;52.050;11.036;2023-11-19T14:42:48;12.00;99.90
5059;DHT22;2548;52.050;11.036;2023-11-19T14:45:22;12.00;99.90
5059;DHT22;2548;52.050;11.036;2023-11-19T14:47:55;12.00;99.90
5059;DHT22;2548;52.050;11.036;2023-11-19T14:50:23;12.00;99.90
5059;DHT22;2548;52.050;11.036;2023-11-19T14:52:50;12.00;99.90
5059;DHT22;2548;52.050;11.036;2023-11-19T14:55:18;11.90;99.90
5059;DHT22;2548;52.050;11.036;2023-11-19T14:57:56;11.90;99.90
5059;DHT22;2548;52.050;11.036;2023-11-19T15:00:23;11.80;99.90
5059;DHT22;2548;52.050;11.036;2023-11-19T15:02:54;11.80;99.90
5059;DHT22;2548;52.050;11.036;2023-11-19T15:05:22;11.70;99.90
5059;DHT22;2548;52.050;11.036;2023-11-19T15:07:49;11.60;99.90
5059;DHT22;2548;52.050;11.036;2023-11-19T15:10:17;11.60;99.90
5059;DHT22;2548;52.050;11.036;2023-11-19T15:12:44;11.60;99.90
5059;DHT22;2548;52.050;11.036;2023-11-19T15:15:16;11.60;99.90
5059;DHT22;2548;52.050;11.036;2023-11-19T15:17:44;11.60;99.90
5059;DHT22;2548;52.050;11.036;2023-11-19T15:20:12;11.60;99.90
5059;DHT22;2548;52.050;11.036;2023-11-19T15:22:44;11.60;99.90
5059;DHT22;2548;52.050;11.036;2023-11-19T15:25:14;11.60;99.90
5059;DHT22;2548;52.050;11.036;2023-11-19T15:27:48;11.60;99.90
5059;DHT22;2548;52.050;11.036;2023-11-19T15:30:20;11.60;99.90
5059;DHT22;2548;52.050;11.036;2023-11-19T15:32:48;11.60;99.90
5059;DHT22;2548;52.050;11.036;2023-11-19T15:35:15;11.60;99.90
5059;DHT22;2548;52.050;11.036;2023-11-19T15:37:43;11.50;99.90
5059;DHT22;2548;52.050;11.036;2023-11-19T15:40:11;11.50;99.90
5059;DHT22;2548;52.050;11.036;2023-11-19T15:42:42;11.40;99.90
5059;DHT22;2548;52.050;11.036;2023-11-19T15:45:11;11.40;99.90
5059;DHT22;2548;52.050;11.036;2023-11-19T15:47:40;11.30;99.90
5059;DHT22;2548;52.050;11.036;2023-11-19T15:50:08;11.30;99.90
5059;DHT22;2548;52.050;11.036;2023-11-19T15:52:36;11.20;99.90
5059;DHT22;2548;52.050;11.036;2023-11-19T15:55:05;11.20;99.90
5059;DHT22;2548;52.050;11.036;2023-11-19T15:57:32;11.10;99.90
5059;DHT22;2548;52.050;11.036;2023-11-19T16:00:00;11.10;99.90
5059;DHT22;2548;52.050;11.036;2023-11-19T16:02:46;11.10;99.90
5059;DHT22;2548;52.050;11.036;2023-11-19T16:05:17;11.10;99.90
5059;DHT22;2548;52.050;11.036;2023-11-19T16:07:45;11.10;99.90
5059;DHT22;2548;52.050;11.036;2023-11-19T16:10:14;11.10;99.90
5059;DHT22;2548;52.050;11.036;2023-11-19T16:12:55;11.10;99.90
5059;DHT22;2548;52.050;11.036;2023-11-19T16:15:22;11.10;99.90
5059;DHT22;2548;52.050;11.036;2023-11-19T16:17:57;11.10;99.90